createdAt,value
2023-02-07T00:00:46.585Z,13.50
2023-02-07T00:03:13.134Z,13.60
2023-02-07T00:05:40.001Z,11.60
2023-02-07T00:08:07.550Z,11.20
2023-02-07T00:10:35.202Z,13.32
2023-02-07T00:13:01.761Z,13.87
2023-02-07T00:15:28.251Z,13.85
2023-02-07T00:17:54.815Z,13.23
2023-02-07T00:20:21.365Z,13.60
2023-02-07T00:22:47.879Z,14.15
2023-02-07T00:25:14.344Z,13.10
2023-02-07T00:27:40.919Z,12.93
2023-02-07T00:30:07.846Z,12.90
2023-02-07T00:32:34.942Z,14.27
2023-02-07T00:35:01.942Z,13.10
2023-02-07T00:37:28.489Z,14.20
2023-02-07T00:39:55.006Z,13.07
2023-02-07T00:42:21.474Z,13.93
2023-02-07T00:44:47.905Z,14.40
2023-02-07T00:47:14.345Z,14.73
2023-02-07T00:49:40.786Z,14.93
2023-02-07T00:52:07.224Z,13.27
2023-02-07T00:54:33.823Z,12.25
2023-02-07T00:57:00.264Z,14.00
2023-02-07T00:59:26.834Z,13.95
2023-02-07T01:01:53.477Z,16.07
2023-02-07T01:04:20.042Z,13.65
2023-02-07T01:06:46.531Z,15.73
2023-02-07T01:09:14.214Z,14.98
2023-02-07T01:11:40.813Z,13.23
2023-02-07T01:14:07.380Z,14.40
2023-02-07T01:16:36.121Z,14.13
2023-02-07T01:19:06.298Z,14.52
2023-02-07T01:21:32.924Z,14.80
2023-02-07T01:23:59.472Z,13.93
2023-02-07T01:26:26.932Z,15.57
2023-02-07T01:28:55.175Z,14.40
2023-02-07T01:31:22.550Z,14.30
2023-02-07T01:33:55.349Z,15.55
2023-02-07T01:36:22.051Z,14.55
2023-02-07T01:38:48.557Z,16.83
2023-02-07T01:41:15.182Z,15.57
2023-02-07T01:44:28.258Z,15.93
2023-02-07T01:46:56.601Z,15.35
2023-02-07T01:49:27.424Z,15.27
2023-02-07T01:51:58.782Z,15.63
2023-02-07T01:54:32.004Z,15.07
2023-02-07T01:57:03.749Z,15.48
2023-02-07T01:59:32.046Z,15.32
2023-02-07T02:02:01.472Z,16.02
2023-02-07T02:04:28.035Z,16.53
2023-02-07T02:06:56.020Z,15.73
2023-02-07T02:09:23.020Z,14.88
2023-02-07T02:12:07.762Z,15.48
2023-02-07T02:15:00.302Z,16.35
2023-02-07T02:18:02.353Z,16.50
2023-02-07T02:20:58.496Z,15.93
2023-02-07T02:23:43.910Z,15.38
2023-02-07T02:26:42.023Z,16.67
2023-02-07T02:29:18.982Z,15.70
2023-02-07T02:32:00.601Z,16.40
2023-02-07T02:34:37.176Z,14.15
2023-02-07T02:37:25.180Z,15.57
2023-02-07T02:40:01.041Z,15.52
2023-02-07T02:42:39.600Z,15.20
2023-02-07T02:45:26.163Z,15.77
2023-02-07T02:47:53.503Z,15.88
2023-02-07T02:50:28.117Z,15.13
2023-02-07T02:52:54.908Z,14.93
2023-02-07T02:55:58.689Z,15.30
2023-02-07T02:58:49.111Z,15.47
2023-02-07T03:01:25.039Z,15.20
2023-02-07T03:04:33.369Z,14.68
2023-02-07T03:07:04.387Z,14.68
2023-02-07T03:09:49.160Z,14.52
2023-02-07T03:12:32.811Z,12.77
2023-02-07T03:15:06.170Z,14.32
2023-02-07T03:17:47.551Z,14.23
2023-02-07T03:20:34.400Z,14.77
2023-02-07T03:23:04.484Z,15.75
2023-02-07T03:25:31.636Z,14.87
2023-02-07T03:27:59.368Z,15.13
2023-02-07T03:30:31.552Z,14.93
2023-02-07T03:33:02.154Z,16.05
2023-02-07T03:35:32.996Z,14.85
2023-02-07T03:38:02.359Z,15.13
2023-02-07T03:40:32.765Z,15.25
2023-02-07T03:43:10.833Z,13.55
2023-02-07T03:45:37.695Z,13.93
2023-02-07T03:48:04.419Z,13.00
2023-02-07T03:50:30.834Z,14.53
2023-02-07T03:52:57.384Z,14.45
2023-02-07T03:55:24.078Z,13.48
2023-02-07T03:57:50.619Z,11.73
2023-02-07T04:00:17.217Z,14.85
2023-02-07T04:02:44.263Z,14.50
2023-02-07T04:05:10.819Z,13.43
2023-02-07T04:07:37.599Z,14.23
2023-02-07T04:10:05.642Z,14.95
2023-02-07T04:12:35.267Z,14.65
2023-02-07T04:15:03.585Z,14.10
2023-02-07T04:17:31.414Z,14.75
2023-02-07T04:19:58.347Z,15.15
2023-02-07T04:22:24.920Z,15.32
2023-02-07T04:24:51.396Z,14.38
2023-02-07T04:27:17.891Z,15.47
2023-02-07T04:29:44.414Z,16.65
2023-02-07T04:32:11.137Z,15.85
2023-02-07T04:34:37.632Z,15.82
2023-02-07T04:37:04.243Z,16.75
2023-02-07T04:39:30.820Z,16.67
2023-02-07T04:41:57.291Z,15.30
2023-02-07T04:44:23.847Z,15.00
2023-02-07T04:46:50.404Z,16.02
2023-02-07T04:49:17.173Z,16.85
2023-02-07T04:51:43.690Z,16.20
2023-02-07T04:54:10.210Z,16.88
2023-02-07T04:56:36.843Z,17.38
2023-02-07T04:59:03.412Z,16.60
2023-02-07T05:01:29.922Z,17.02
2023-02-07T05:03:56.406Z,16.23
2023-02-07T05:06:22.975Z,15.00
2023-02-07T05:08:49.455Z,15.38
2023-02-07T05:11:16.553Z,14.55
2023-02-07T05:13:43.021Z,16.08
2023-02-07T05:16:09.598Z,15.97
2023-02-07T05:18:36.065Z,15.15
2023-02-07T05:21:02.590Z,15.23
2023-02-07T05:23:29.045Z,16.33
2023-02-07T05:25:55.534Z,14.65
2023-02-07T05:28:22.048Z,16.03
2023-02-07T05:30:48.720Z,15.98
2023-02-07T05:33:15.290Z,15.68
2023-02-07T05:35:44.605Z,15.15
2023-02-07T05:38:13.572Z,16.50
2023-02-07T05:40:42.351Z,15.43
2023-02-07T05:43:10.166Z,15.10
2023-02-07T05:45:37.477Z,15.75
2023-02-07T05:48:04.522Z,15.77
2023-02-07T05:50:31.223Z,15.30
2023-02-07T05:52:57.686Z,15.67
2023-02-07T05:55:24.224Z,15.90
2023-02-07T05:57:50.643Z,16.98
2023-02-07T06:00:18.703Z,15.43
2023-02-07T06:02:45.588Z,14.77
2023-02-07T06:05:15.861Z,16.27
2023-02-07T06:07:43.999Z,16.95
2023-02-07T06:10:10.989Z,17.40
2023-02-07T06:12:37.429Z,16.45
2023-02-07T06:15:04.444Z,15.55
2023-02-07T06:17:30.951Z,17.43
2023-02-07T06:19:57.396Z,16.23
2023-02-07T06:22:23.905Z,16.30
2023-02-07T06:24:50.460Z,16.45
2023-02-07T06:27:16.987Z,15.55
2023-02-07T06:29:43.516Z,16.87
2023-02-07T06:32:09.958Z,16.95
2023-02-07T06:34:36.378Z,18.75
2023-02-07T06:37:02.907Z,19.05
2023-02-07T06:39:29.354Z,18.23
2023-02-07T06:41:55.841Z,16.83
2023-02-07T06:44:22.339Z,18.25
2023-02-07T06:46:48.817Z,18.30
2023-02-07T06:49:15.328Z,19.08
2023-02-07T06:51:41.807Z,17.55
2023-02-07T06:54:09.955Z,19.17
2023-02-07T06:56:37.457Z,16.98
2023-02-07T06:59:04.346Z,18.30
2023-02-07T07:01:31.448Z,19.15
2023-02-07T07:03:58.173Z,17.35
2023-02-07T07:06:25.115Z,18.33
2023-02-07T07:08:51.757Z,18.05
2023-02-07T07:11:18.982Z,18.30
2023-02-07T07:13:46.187Z,17.10
2023-02-07T07:16:12.910Z,17.05
2023-02-07T07:18:39.643Z,17.43
2023-02-07T07:21:06.577Z,17.70
2023-02-07T07:23:33.439Z,16.92
2023-02-07T07:26:00.403Z,16.55
2023-02-07T07:28:26.951Z,18.50
2023-02-07T07:30:53.578Z,21.37
2023-02-07T07:33:20.136Z,20.38
2023-02-07T07:35:46.644Z,17.52
2023-02-07T07:38:13.144Z,18.80
2023-02-07T07:40:39.901Z,18.30
2023-02-07T07:43:06.593Z,19.10
2023-02-07T07:45:33.051Z,19.67
2023-02-07T07:47:59.545Z,20.13
2023-02-07T07:50:26.170Z,21.98
2023-02-07T07:52:52.635Z,20.15
2023-02-07T07:55:19.105Z,22.00
2023-02-07T07:57:45.578Z,22.00
2023-02-07T08:00:13.020Z,19.40
2023-02-07T08:02:39.810Z,21.50
2023-02-07T08:05:06.341Z,23.27
2023-02-07T08:07:32.962Z,22.40
2023-02-07T08:09:59.465Z,22.13
2023-02-07T08:12:26.267Z,22.65
2023-02-07T08:14:52.732Z,21.42
2023-02-07T08:17:19.316Z,22.85
2023-02-07T08:19:45.780Z,22.23
2023-02-07T08:22:14.358Z,21.08
2023-02-07T08:24:41.904Z,21.55
2023-02-07T08:27:08.447Z,22.60
2023-02-07T08:29:34.917Z,22.58
2023-02-07T08:32:01.668Z,22.00
2023-02-07T08:34:28.946Z,22.88
2023-02-07T08:36:55.544Z,23.10
2023-02-07T08:39:22.059Z,23.60
2023-02-07T08:41:48.523Z,24.27
2023-02-07T08:44:15.217Z,22.17
2023-02-07T08:46:41.855Z,22.63
2023-02-07T08:49:08.428Z,24.90
2023-02-07T08:51:35.040Z,23.38
2023-02-07T08:54:01.512Z,23.48
2023-02-07T08:56:27.931Z,21.47
2023-02-07T08:58:54.369Z,21.08
2023-02-07T09:01:21.074Z,22.83
2023-02-07T09:03:47.686Z,24.48
2023-02-07T09:06:14.190Z,24.38
2023-02-07T09:08:40.754Z,23.33
2023-02-07T09:11:10.261Z,25.13
2023-02-07T09:13:37.305Z,24.92
2023-02-07T09:16:03.890Z,21.70
2023-02-07T09:18:31.029Z,22.25
2023-02-07T09:20:57.638Z,20.67
2023-02-07T09:23:24.107Z,21.95
2023-02-07T09:25:52.732Z,21.52
2023-02-07T09:28:22.193Z,20.02
2023-02-07T09:30:49.188Z,21.25
2023-02-07T09:33:16.371Z,21.23
2023-02-07T09:35:46.334Z,20.58
2023-02-07T09:38:16.046Z,20.17
2023-02-07T09:40:44.225Z,21.65
2023-02-07T09:43:14.604Z,20.23
2023-02-07T09:45:47.863Z,18.27
2023-02-07T09:48:19.924Z,19.20
2023-02-07T09:50:52.598Z,19.35
2023-02-07T09:53:34.986Z,18.15
2023-02-07T09:56:02.395Z,19.02
2023-02-07T09:58:50.600Z,18.40
2023-02-07T10:01:24.554Z,19.33
2023-02-07T10:04:08.139Z,20.02
2023-02-07T10:06:36.794Z,20.15
2023-02-07T10:09:03.385Z,18.55
2023-02-07T10:11:45.784Z,19.77
2023-02-07T10:14:37.173Z,19.45
2023-02-07T10:17:32.260Z,17.80
2023-02-07T10:20:33.679Z,18.20
2023-02-07T10:23:25.603Z,18.17
2023-02-07T10:26:10.808Z,17.73
2023-02-07T10:28:57.717Z,16.92
2023-02-07T10:31:26.252Z,16.92
2023-02-07T10:33:59.704Z,17.27
2023-02-07T10:36:26.270Z,17.02
2023-02-07T10:39:09.459Z,17.10
2023-02-07T10:41:42.953Z,18.00
2023-02-07T10:44:13.857Z,17.58
2023-02-07T10:46:43.768Z,16.75
2023-02-07T10:49:31.089Z,15.07
2023-02-07T10:52:02.758Z,16.30
2023-02-07T10:54:29.717Z,16.42
2023-02-07T10:57:02.268Z,17.00
2023-02-07T10:59:35.270Z,16.70
2023-02-07T11:02:03.284Z,16.98
2023-02-07T11:04:36.896Z,17.23
2023-02-07T11:07:07.518Z,17.30
2023-02-07T11:09:37.856Z,16.73
2023-02-07T11:12:25.511Z,17.25
2023-02-07T11:15:11.121Z,15.65
2023-02-07T11:17:37.652Z,16.03
2023-02-07T11:20:06.390Z,16.75
2023-02-07T11:22:33.527Z,16.25
2023-02-07T11:25:06.058Z,15.55
2023-02-07T11:27:42.313Z,15.18
2023-02-07T11:30:16.226Z,15.93
2023-02-07T11:32:44.177Z,15.27
2023-02-07T11:35:19.440Z,16.30
2023-02-07T11:38:14.826Z,14.82
2023-02-07T11:40:41.248Z,15.95
2023-02-07T11:43:16.646Z,15.23
2023-02-07T11:45:46.384Z,14.95
2023-02-07T11:48:24.610Z,14.63
2023-02-07T11:50:56.693Z,15.18
2023-02-07T11:53:28.361Z,14.38
2023-02-07T11:55:56.595Z,14.63
2023-02-07T11:58:33.734Z,15.23
2023-02-07T12:01:02.412Z,14.52
2023-02-07T12:03:33.549Z,13.32
2023-02-07T12:06:04.891Z,12.43
2023-02-07T12:08:35.453Z,12.63
2023-02-07T12:11:04.731Z,12.45
2023-02-07T12:13:43.880Z,10.50
2023-02-07T12:16:17.736Z,12.38
2023-02-07T12:18:54.982Z,13.02
2023-02-07T12:21:31.181Z,12.60
2023-02-07T12:24:03.207Z,13.45
2023-02-07T12:26:33.452Z,13.05
2023-02-07T12:29:18.490Z,13.48
2023-02-07T12:32:26.836Z,12.95
2023-02-07T12:35:11.027Z,13.40
2023-02-07T12:37:46.361Z,13.68
2023-02-07T12:40:12.779Z,13.90
2023-02-07T12:42:41.010Z,13.90
2023-02-07T12:45:15.830Z,13.60
2023-02-07T12:47:57.678Z,13.07
2023-02-07T12:50:42.393Z,13.15
2023-02-07T12:53:33.705Z,13.82
2023-02-07T12:56:34.790Z,12.95
2023-02-07T12:59:33.957Z,13.40
2023-02-07T13:02:37.695Z,13.47
2023-02-07T13:05:25.717Z,11.00
2023-02-07T13:08:13.751Z,11.70
2023-02-07T13:10:49.276Z,12.82
2023-02-07T13:13:33.040Z,12.13
2023-02-07T13:16:20.673Z,12.17
2023-02-07T13:19:02.380Z,12.27
2023-02-07T13:21:55.263Z,11.38
2023-02-07T13:24:25.635Z,11.88
2023-02-07T13:26:57.034Z,11.60
2023-02-07T13:29:25.022Z,12.27
2023-02-07T13:31:55.342Z,11.57
2023-02-07T13:34:30.128Z,10.57
2023-02-07T13:37:00.750Z,10.70
2023-02-07T13:39:38.450Z,11.18
2023-02-07T13:42:32.501Z,10.23
2023-02-07T13:45:01.877Z,11.00
2023-02-07T13:47:42.118Z,9.68
2023-02-07T13:50:40.134Z,8.32
2023-02-07T13:53:13.767Z,9.40
2023-02-07T13:55:42.393Z,7.90
2023-02-07T13:58:52.334Z,10.00
2023-02-07T14:01:26.181Z,7.50
2023-02-07T14:04:09.219Z,8.63
2023-02-07T14:06:40.292Z,9.80
2023-02-07T14:09:17.780Z,9.43
2023-02-07T14:11:44.201Z,9.52
2023-02-07T14:14:15.489Z,8.20
2023-02-07T14:16:46.220Z,9.27
2023-02-07T14:19:13.559Z,8.95
2023-02-07T14:21:42.119Z,8.87
2023-02-07T14:24:08.941Z,8.25
2023-02-07T14:26:39.006Z,8.95
2023-02-07T14:29:23.658Z,8.18
2023-02-07T14:31:54.517Z,8.00
2023-02-07T14:34:22.468Z,7.30
2023-02-07T14:36:49.205Z,7.45
2023-02-07T14:39:18.419Z,7.72
2023-02-07T14:41:47.645Z,7.78
2023-02-07T14:44:35.274Z,7.72
2023-02-07T14:47:04.686Z,7.60
2023-02-07T14:49:40.303Z,8.18
2023-02-07T14:52:11.682Z,7.68
2023-02-07T14:54:55.526Z,7.10
2023-02-07T14:57:35.518Z,5.97
2023-02-07T15:00:03.904Z,8.00
2023-02-07T15:02:40.808Z,7.55
2023-02-07T15:05:13.198Z,6.88
2023-02-07T15:07:40.774Z,5.50
2023-02-07T15:10:15.511Z,6.78
2023-02-07T15:12:46.169Z,8.80
2023-02-07T15:15:38.653Z,7.45
2023-02-07T15:18:05.207Z,6.90
2023-02-07T15:20:34.085Z,5.93
2023-02-07T15:23:03.266Z,6.68
2023-02-07T15:25:32.680Z,6.87
2023-02-07T15:28:09.219Z,6.95
2023-02-07T15:30:40.589Z,6.70
2023-02-07T15:33:13.224Z,6.07
2023-02-07T15:35:39.776Z,6.50
2023-02-07T15:38:20.163Z,5.70
2023-02-07T15:40:46.695Z,6.45
2023-02-07T15:43:52.782Z,7.13
2023-02-07T15:46:19.281Z,7.40
2023-02-07T15:49:07.927Z,7.70
2023-02-07T15:51:41.231Z,8.80
2023-02-07T15:54:15.704Z,9.27
2023-02-07T15:56:46.426Z,8.68
2023-02-07T15:59:18.165Z,11.75
2023-02-07T16:01:53.027Z,10.88
2023-02-07T16:04:23.357Z,10.10
2023-02-07T16:07:02.428Z,10.55
2023-02-07T16:09:43.411Z,9.90
2023-02-07T16:12:53.035Z,10.27
2023-02-07T16:15:32.353Z,10.75
2023-02-07T16:18:00.924Z,11.03
2023-02-07T16:20:29.146Z,11.82
2023-02-07T16:23:01.869Z,10.70
2023-02-07T16:25:34.706Z,12.02
2023-02-07T16:28:02.063Z,11.70
2023-02-07T16:30:36.781Z,11.30
2023-02-07T16:33:08.005Z,11.63
2023-02-07T16:35:34.563Z,11.88
2023-02-07T16:38:01.072Z,15.57
2023-02-07T16:40:27.806Z,16.35
2023-02-07T16:42:55.802Z,13.53
2023-02-07T16:45:27.628Z,13.88
2023-02-07T16:47:54.899Z,14.05
2023-02-07T16:50:24.347Z,15.82
2023-02-07T16:52:52.711Z,14.45
2023-02-07T16:55:20.957Z,13.80
2023-02-07T16:57:49.333Z,14.20
2023-02-07T17:00:19.469Z,16.38
2023-02-07T17:02:48.471Z,15.32
2023-02-07T17:05:16.144Z,16.10
2023-02-07T17:07:43.185Z,16.80
2023-02-07T17:10:20.952Z,18.70
2023-02-07T17:12:47.867Z,23.42
2023-02-07T17:15:14.402Z,21.33
2023-02-07T17:17:40.880Z,22.17
2023-02-07T17:20:28.682Z,20.27
2023-02-07T17:22:55.504Z,20.58
2023-02-07T17:25:24.275Z,20.45
2023-02-07T17:27:51.023Z,19.70
2023-02-07T17:30:21.160Z,17.55
2023-02-07T17:32:47.843Z,16.53
2023-02-07T17:35:14.991Z,16.73
2023-02-07T17:37:42.275Z,17.25
2023-02-07T17:40:23.450Z,16.27
2023-02-07T17:42:50.036Z,16.42
2023-02-07T17:45:16.916Z,17.60
2023-02-07T17:47:43.458Z,16.80
2023-02-07T17:50:17.929Z,14.18
2023-02-07T17:52:44.584Z,15.18
2023-02-07T17:55:11.148Z,16.95
2023-02-07T17:57:37.835Z,15.70
2023-02-07T18:00:05.264Z,16.25
2023-02-07T18:02:33.358Z,13.93
2023-02-07T18:04:59.940Z,17.63
2023-02-07T18:07:28.025Z,17.88
2023-02-07T18:09:54.497Z,18.77
2023-02-07T18:12:20.965Z,19.58
2023-02-07T18:14:47.469Z,18.60
2023-02-07T18:17:14.102Z,17.58
2023-02-07T18:19:40.590Z,21.70
2023-02-07T18:22:07.145Z,22.13
2023-02-07T18:24:33.640Z,21.00
2023-02-07T18:27:00.111Z,21.98
2023-02-07T18:29:26.810Z,26.83
2023-02-07T18:31:53.454Z,28.70
2023-02-07T18:34:20.068Z,28.40
2023-02-07T18:36:46.577Z,27.48
2023-02-07T18:39:13.704Z,26.63
2023-02-07T18:41:40.265Z,27.85
2023-02-07T18:44:07.118Z,27.80
2023-02-07T18:46:33.718Z,27.83
2023-02-07T18:49:00.552Z,27.27
2023-02-07T18:51:27.121Z,28.95
2023-02-07T18:53:56.680Z,31.27
2023-02-07T18:56:26.212Z,33.72
2023-02-07T18:58:56.388Z,27.97
2023-02-07T19:01:25.460Z,27.40
2023-02-07T19:03:56.339Z,28.63
2023-02-07T19:06:27.457Z,28.25
2023-02-07T19:08:54.089Z,29.35
2023-02-07T19:11:20.721Z,28.60
2023-02-07T19:13:47.577Z,29.52
2023-02-07T19:16:17.751Z,28.65
2023-02-07T19:18:45.410Z,25.40
2023-02-07T19:21:23.641Z,23.45
2023-02-07T19:23:50.566Z,23.73
2023-02-07T19:26:17.066Z,23.13
2023-02-07T19:28:43.556Z,24.05
2023-02-07T19:31:17.865Z,22.73
2023-02-07T19:33:45.257Z,22.70
2023-02-07T19:36:12.574Z,19.00
2023-02-07T19:38:39.273Z,20.17
2023-02-07T19:41:06.657Z,20.75
2023-02-07T19:43:33.259Z,22.95
2023-02-07T19:45:59.943Z,23.63
2023-02-07T19:48:26.924Z,26.67
2023-02-07T19:51:05.852Z,31.45
2023-02-07T19:53:33.497Z,31.40
2023-02-07T19:56:11.312Z,27.80
2023-02-07T19:58:40.739Z,26.45
2023-02-07T20:01:08.001Z,23.23
2023-02-07T20:03:34.552Z,27.08
2023-02-07T20:06:02.989Z,25.95
2023-02-07T20:08:33.944Z,24.17
2023-02-07T20:11:07.772Z,24.77
2023-02-07T20:13:35.601Z,24.03
2023-02-07T20:16:11.263Z,25.38
2023-02-07T20:18:38.188Z,24.40
2023-02-07T20:21:11.531Z,23.92
2023-02-07T20:23:39.898Z,23.35
2023-02-07T20:26:09.022Z,24.10
2023-02-07T20:28:36.392Z,25.85
2023-02-07T20:31:07.954Z,26.17
2023-02-07T20:33:35.789Z,26.10
2023-02-07T20:36:02.654Z,27.60
2023-02-07T20:38:29.176Z,29.20
2023-02-07T20:40:57.472Z,30.42
2023-02-07T20:43:24.215Z,29.00
2023-02-07T20:45:50.733Z,26.73
2023-02-07T20:48:17.244Z,27.10
2023-02-07T20:50:43.781Z,27.33
2023-02-07T20:53:10.245Z,24.88
2023-02-07T20:55:36.997Z,24.15
2023-02-07T20:58:03.518Z,25.33
2023-02-07T21:00:30.076Z,23.25
2023-02-07T21:02:56.585Z,22.73
2023-02-07T21:05:23.023Z,24.92
2023-02-07T21:07:49.552Z,23.05
2023-02-07T21:10:16.176Z,21.58
2023-02-07T21:12:42.592Z,20.13
2023-02-07T21:15:09.577Z,24.00
2023-02-07T21:17:36.769Z,29.92
2023-02-07T21:20:03.922Z,26.88
2023-02-07T21:22:30.448Z,26.65
2023-02-07T21:24:56.917Z,23.83
2023-02-07T21:27:23.384Z,21.87
2023-02-07T21:29:49.902Z,21.73
2023-02-07T21:32:16.454Z,18.00
2023-02-07T21:34:44.226Z,18.98
2023-02-07T21:37:10.715Z,24.73
2023-02-07T21:39:37.390Z,22.20
2023-02-07T21:42:04.102Z,22.08
2023-02-07T21:44:30.550Z,22.08
2023-02-07T21:46:57.253Z,22.70
2023-02-07T21:49:24.097Z,22.60
2023-02-07T21:51:53.451Z,24.67
2023-02-07T21:54:19.934Z,28.80
2023-02-07T21:56:49.135Z,29.00
2023-02-07T21:59:18.384Z,26.30
2023-02-07T22:01:46.381Z,24.25
2023-02-07T22:04:14.260Z,23.30
2023-02-07T22:06:43.608Z,24.05
2023-02-07T22:09:15.033Z,24.85
2023-02-07T22:11:42.084Z,19.02
2023-02-07T22:14:10.022Z,19.98
2023-02-07T22:16:36.741Z,17.67
2023-02-07T22:19:05.487Z,17.35
2023-02-07T22:21:34.648Z,18.80
2023-02-07T22:24:02.820Z,19.65
2023-02-07T22:26:30.036Z,21.40
2023-02-07T22:28:57.361Z,20.57
2023-02-07T22:31:27.761Z,20.63
2023-02-07T22:33:55.729Z,20.33
2023-02-07T22:36:28.412Z,22.02
2023-02-07T22:38:55.272Z,25.40
2023-02-07T22:41:22.194Z,24.37
2023-02-07T22:43:49.288Z,21.73
2023-02-07T22:46:18.146Z,22.52
2023-02-07T22:48:45.514Z,24.02
2023-02-07T22:51:23.929Z,24.75
2023-02-07T22:53:53.979Z,25.07
2023-02-07T22:56:20.779Z,24.67
2023-02-07T22:58:47.579Z,24.90
2023-02-07T23:01:26.323Z,23.90
2023-02-07T23:03:53.996Z,22.25
2023-02-07T23:06:21.335Z,20.00
2023-02-07T23:08:48.233Z,19.73
2023-02-07T23:11:16.469Z,21.67
2023-02-07T23:13:43.512Z,23.02
2023-02-07T23:16:14.799Z,21.75
2023-02-07T23:18:41.695Z,21.50
2023-02-07T23:21:10.421Z,20.08
2023-02-07T23:23:38.034Z,21.95
2023-02-07T23:26:09.893Z,21.40
2023-02-07T23:28:37.820Z,19.65
2023-02-07T23:31:09.630Z,20.57
2023-02-07T23:33:37.053Z,22.58
2023-02-07T23:36:04.883Z,19.95
2023-02-07T23:38:32.336Z,20.38
2023-02-07T23:40:58.791Z,21.38
2023-02-07T23:43:25.761Z,21.47
2023-02-07T23:45:52.744Z,20.20
2023-02-07T23:48:19.552Z,20.33
2023-02-07T23:50:53.816Z,21.15
2023-02-07T23:53:21.247Z,20.17
2023-02-07T23:55:49.410Z,21.30
2023-02-07T23:58:16.789Z,21.63
